createdAt,value
2023-04-02T00:02:23.278Z,5.57
2023-04-02T00:05:19.696Z,5.82
2023-04-02T00:07:53.765Z,5.57
2023-04-02T00:10:31.092Z,5.60
2023-04-02T00:13:10.107Z,6.60
2023-04-02T00:15:38.305Z,9.63
2023-04-02T00:18:05.726Z,6.50
2023-04-02T00:20:36.476Z,4.50
2023-04-02T00:23:03.805Z,6.55
2023-04-02T00:25:35.279Z,6.30
2023-04-02T00:28:03.697Z,7.33
2023-04-02T00:30:31.034Z,7.20
2023-04-02T00:32:58.351Z,6.82
2023-04-02T00:35:27.328Z,8.23
2023-04-02T00:37:54.833Z,7.07
2023-04-02T00:40:28.547Z,6.10
2023-04-02T00:42:58.053Z,7.65
2023-04-02T00:45:29.966Z,5.45
2023-04-02T00:47:58.686Z,8.05
2023-04-02T00:50:34.879Z,7.38
2023-04-02T00:53:05.358Z,8.10
2023-04-02T00:55:40.012Z,5.85
2023-04-02T00:58:27.728Z,7.72
2023-04-02T01:00:54.978Z,6.70
2023-04-02T01:03:28.730Z,6.53
2023-04-02T01:06:01.664Z,10.73
2023-04-02T01:08:41.906Z,5.30
2023-04-02T01:11:34.478Z,7.78
2023-04-02T01:14:23.106Z,5.72
2023-04-02T01:16:50.415Z,6.85
2023-04-02T01:19:45.145Z,7.07
2023-04-02T01:22:30.888Z,8.77
2023-04-02T01:24:58.298Z,7.50
2023-04-02T01:27:39.786Z,7.60
2023-04-02T01:30:07.784Z,5.70
2023-04-02T01:32:35.116Z,6.47
2023-04-02T01:35:02.548Z,8.05
2023-04-02T01:37:36.825Z,6.88
2023-04-02T01:40:17.262Z,5.38
2023-04-02T01:43:26.910Z,7.95
2023-04-02T01:45:54.148Z,8.60
2023-04-02T01:48:24.812Z,9.32
2023-04-02T01:50:54.965Z,9.80
2023-04-02T01:53:23.192Z,9.98
2023-04-02T01:55:52.500Z,8.68
2023-04-02T01:58:25.611Z,11.33
2023-04-02T02:01:03.613Z,9.13
2023-04-02T02:03:31.962Z,9.43
2023-04-02T02:05:59.616Z,10.52
2023-04-02T02:08:52.108Z,10.70
2023-04-02T02:11:21.663Z,9.47
2023-04-02T02:14:01.342Z,12.07
2023-04-02T02:16:29.500Z,12.20
2023-04-02T02:18:59.313Z,11.07
2023-04-02T02:21:38.251Z,10.57
2023-04-02T02:24:07.894Z,11.03
2023-04-02T02:26:35.929Z,11.88
2023-04-02T02:29:03.530Z,12.15
2023-04-02T02:31:31.234Z,11.07
2023-04-02T02:34:24.660Z,10.32
2023-04-02T02:37:16.360Z,12.17
2023-04-02T02:39:44.741Z,9.52
2023-04-02T02:42:14.712Z,12.27
2023-04-02T02:44:44.668Z,13.18
2023-04-02T02:47:19.710Z,12.00
2023-04-02T02:49:50.039Z,9.57
2023-04-02T02:52:26.186Z,10.82
2023-04-02T02:55:09.772Z,11.43
2023-04-02T02:58:00.917Z,10.48
2023-04-02T03:00:33.743Z,10.98
2023-04-02T03:03:02.659Z,8.87
2023-04-02T03:05:31.992Z,8.90
2023-04-02T03:08:06.675Z,9.85
2023-04-02T03:10:37.226Z,10.20
2023-04-02T03:13:26.901Z,9.07
2023-04-02T03:16:21.087Z,8.67
2023-04-02T03:19:13.502Z,9.38
2023-04-02T03:21:49.484Z,9.15
2023-04-02T03:24:27.189Z,7.78
2023-04-02T03:26:58.420Z,6.57
2023-04-02T03:29:29.737Z,8.23
2023-04-02T03:32:00.342Z,7.43
2023-04-02T03:34:33.702Z,8.07
2023-04-02T03:37:09.075Z,10.27
2023-04-02T03:39:51.249Z,7.97
2023-04-02T03:42:25.283Z,8.50
2023-04-02T03:45:00.658Z,8.00
2023-04-02T03:47:36.870Z,8.13
2023-04-02T03:50:16.068Z,8.73
2023-04-02T03:52:43.766Z,8.68
2023-04-02T03:55:17.457Z,6.57
2023-04-02T03:58:00.888Z,7.10
2023-04-02T04:00:44.724Z,9.85
2023-04-02T04:03:13.557Z,6.90
2023-04-02T04:05:53.536Z,8.65
2023-04-02T04:08:29.319Z,8.33
2023-04-02T04:10:57.973Z,12.95
2023-04-02T04:13:45.662Z,10.10
2023-04-02T04:16:16.882Z,10.05
2023-04-02T04:18:56.988Z,8.75
2023-04-02T04:21:37.770Z,9.13
2023-04-02T04:24:22.914Z,11.20
2023-04-02T04:27:10.082Z,8.75
2023-04-02T04:29:58.291Z,7.80
2023-04-02T04:32:52.771Z,8.45
2023-04-02T04:35:32.943Z,7.90
2023-04-02T04:38:12.195Z,8.30
2023-04-02T04:40:52.446Z,9.27
2023-04-02T04:43:32.610Z,9.98
2023-04-02T04:46:22.407Z,11.38
2023-04-02T04:48:54.510Z,10.43
2023-04-02T04:51:45.587Z,9.00
2023-04-02T04:54:14.660Z,10.90
2023-04-02T04:56:51.417Z,10.77
2023-04-02T04:59:24.446Z,10.32
2023-04-02T05:01:57.824Z,12.10
2023-04-02T05:04:34.229Z,9.60
2023-04-02T05:07:23.721Z,8.13
2023-04-02T05:10:15.747Z,10.48
2023-04-02T05:13:01.862Z,9.88
2023-04-02T05:15:34.432Z,9.47
2023-04-02T05:18:26.410Z,9.82
2023-04-02T05:21:14.177Z,9.27
2023-04-02T05:23:54.216Z,11.00
2023-04-02T05:26:24.858Z,11.38
2023-04-02T05:29:25.070Z,10.00
2023-04-02T05:32:01.254Z,10.48
2023-04-02T05:34:31.649Z,11.73
2023-04-02T05:36:59.748Z,10.48
2023-04-02T05:39:27.870Z,8.52
2023-04-02T05:42:07.455Z,8.97
2023-04-02T05:45:09.537Z,10.35
2023-04-02T05:47:41.149Z,8.05
2023-04-02T05:50:30.737Z,9.00
2023-04-02T05:53:11.160Z,9.93
2023-04-02T05:56:03.836Z,9.33
2023-04-02T05:58:36.765Z,9.70
2023-04-02T06:01:45.837Z,10.30
2023-04-02T06:04:27.587Z,10.93
2023-04-02T06:07:03.628Z,8.60
2023-04-02T06:09:45.134Z,7.90
2023-04-02T06:12:18.181Z,8.73
2023-04-02T06:14:45.899Z,10.27
2023-04-02T06:17:18.653Z,9.20
2023-04-02T06:19:47.874Z,12.55
2023-04-02T06:22:25.226Z,12.97
2023-04-02T06:25:00.734Z,11.43
2023-04-02T06:27:28.432Z,10.02
2023-04-02T06:30:00.200Z,10.27
2023-04-02T06:32:30.708Z,10.93
2023-04-02T06:34:58.313Z,9.53
2023-04-02T06:37:30.450Z,10.20
2023-04-02T06:40:17.872Z,12.00
2023-04-02T06:42:46.152Z,13.57
2023-04-02T06:45:23.898Z,11.80
2023-04-02T06:48:14.885Z,11.20
2023-04-02T06:50:49.192Z,12.30
2023-04-02T06:53:23.699Z,13.27
2023-04-02T06:56:01.319Z,13.20
2023-04-02T06:58:30.738Z,13.70
2023-04-02T07:00:58.038Z,12.27
2023-04-02T07:03:32.490Z,13.00
2023-04-02T07:06:06.978Z,11.55
2023-04-02T07:08:35.465Z,12.88
2023-04-02T07:11:02.807Z,12.27
2023-04-02T07:13:30.122Z,9.53
2023-04-02T07:15:57.484Z,11.10
2023-04-02T07:18:27.901Z,14.93
2023-04-02T07:20:56.116Z,12.38
2023-04-02T07:23:24.099Z,11.85
2023-04-02T07:25:52.836Z,13.97
2023-04-02T07:28:22.395Z,12.02
2023-04-02T07:30:50.288Z,10.55
2023-04-02T07:33:18.983Z,10.45
2023-04-02T07:35:46.640Z,11.13
2023-04-02T07:38:13.985Z,12.17
2023-04-02T07:40:41.403Z,11.35
2023-04-02T07:43:08.756Z,10.48
2023-04-02T07:45:36.404Z,9.68
2023-04-02T07:48:07.454Z,11.90
2023-04-02T07:50:34.834Z,11.50
2023-04-02T07:53:02.155Z,11.32
2023-04-02T07:55:29.425Z,10.30
2023-04-02T07:57:58.496Z,11.63
2023-04-02T08:00:26.742Z,10.88
2023-04-02T08:02:54.172Z,9.90
2023-04-02T08:05:22.572Z,7.55
2023-04-02T08:07:54.850Z,8.95
2023-04-02T08:10:22.253Z,12.52
2023-04-02T08:12:49.855Z,12.63
2023-04-02T08:15:17.210Z,9.13
2023-04-02T08:17:44.555Z,7.78
2023-04-02T08:20:22.310Z,7.15
2023-04-02T08:22:49.772Z,6.82
2023-04-02T08:25:17.294Z,4.95
2023-04-02T08:27:47.215Z,5.30
2023-04-02T08:30:14.739Z,4.97
2023-04-02T08:32:42.133Z,6.43
2023-04-02T08:35:11.076Z,5.05
2023-04-02T08:37:38.353Z,6.05
2023-04-02T08:40:07.486Z,6.27
2023-04-02T08:42:51.975Z,9.68
2023-04-02T08:45:24.957Z,6.57
2023-04-02T08:47:55.529Z,7.22
2023-04-02T08:50:35.637Z,6.07
2023-04-02T08:53:05.149Z,8.37
2023-04-02T08:56:05.753Z,6.80
2023-04-02T08:58:33.185Z,6.70
2023-04-02T09:01:01.930Z,7.68
2023-04-02T09:03:32.526Z,6.05
2023-04-02T09:05:59.857Z,6.97
2023-04-02T09:08:27.492Z,8.40
2023-04-02T09:10:55.903Z,11.65
2023-04-02T09:13:24.687Z,7.65
2023-04-02T09:15:56.517Z,10.75
2023-04-02T09:18:23.852Z,9.73
2023-04-02T09:20:51.217Z,8.10
2023-04-02T09:23:20.137Z,8.98
2023-04-02T09:26:03.012Z,9.60
2023-04-02T09:28:31.756Z,8.02
2023-04-02T09:31:18.455Z,6.70
2023-04-02T09:33:47.153Z,6.88
2023-04-02T09:36:37.141Z,7.07
2023-04-02T09:39:07.028Z,7.03
2023-04-02T09:41:36.918Z,8.07
2023-04-02T09:44:24.338Z,6.63
2023-04-02T09:46:54.523Z,6.93
2023-04-02T09:49:23.751Z,6.55
2023-04-02T09:52:06.146Z,6.75
2023-04-02T09:54:33.488Z,8.95
2023-04-02T09:57:04.618Z,9.27
2023-04-02T09:59:31.900Z,7.97
2023-04-02T10:02:01.533Z,8.48
2023-04-02T10:04:48.137Z,8.93
2023-04-02T10:07:38.936Z,8.05
2023-04-02T10:10:27.161Z,8.00
2023-04-02T10:12:59.415Z,8.40
2023-04-02T10:15:58.986Z,8.82
2023-04-02T10:18:31.084Z,6.47
2023-04-02T10:20:58.481Z,7.15
2023-04-02T10:23:27.820Z,6.20
2023-04-02T10:26:09.105Z,6.40
2023-04-02T10:28:42.574Z,5.63
2023-04-02T10:31:22.895Z,12.35
2023-04-02T10:33:51.837Z,7.10
2023-04-02T10:36:31.675Z,7.93
2023-04-02T10:39:34.453Z,4.22
2023-04-02T10:42:01.803Z,5.15
2023-04-02T10:44:32.066Z,5.68
2023-04-02T10:47:18.309Z,5.60
2023-04-02T10:49:54.925Z,5.43
2023-04-02T10:52:28.927Z,4.18
2023-04-02T10:54:58.810Z,5.30
2023-04-02T10:57:37.974Z,5.03
2023-04-02T11:00:11.456Z,4.68
2023-04-02T11:02:44.132Z,4.73
2023-04-02T11:05:36.375Z,5.55
2023-04-02T11:08:18.475Z,3.75
2023-04-02T11:10:59.298Z,2.92
2023-04-02T11:13:52.613Z,3.80
2023-04-02T11:16:20.246Z,2.70
2023-04-02T11:19:15.873Z,3.65
2023-04-02T11:21:58.693Z,2.80
2023-04-02T11:24:37.309Z,3.28
2023-04-02T11:27:11.229Z,2.47
2023-04-02T11:30:18.204Z,2.63
2023-04-02T11:32:49.327Z,3.58
2023-04-02T11:35:32.048Z,4.70
2023-04-02T11:38:23.120Z,4.38
2023-04-02T11:40:57.584Z,5.50
2023-04-02T11:43:34.213Z,4.77
2023-04-02T11:46:16.700Z,3.92
2023-04-02T11:48:43.971Z,4.03
2023-04-02T11:51:23.141Z,4.00
2023-04-02T11:53:51.606Z,3.75
2023-04-02T11:56:32.364Z,4.13
2023-04-02T11:59:06.443Z,4.90
2023-04-02T12:01:58.217Z,3.53
2023-04-02T12:04:46.122Z,4.10
2023-04-02T12:07:17.560Z,7.10
2023-04-02T12:09:51.188Z,6.07
2023-04-02T12:12:24.363Z,4.38
2023-04-02T12:14:52.742Z,3.10
2023-04-02T12:17:28.625Z,3.03
2023-04-02T12:20:09.665Z,2.08
2023-04-02T12:22:48.037Z,3.03
2023-04-02T12:25:31.777Z,2.38
2023-04-02T12:28:05.225Z,1.98
2023-04-02T12:30:32.601Z,3.45
2023-04-02T12:33:20.428Z,2.15
2023-04-02T12:35:48.579Z,3.37
2023-04-02T12:38:24.581Z,2.47
2023-04-02T12:40:56.868Z,4.82
2023-04-02T12:43:31.140Z,3.17
2023-04-02T12:46:00.425Z,2.03
2023-04-02T12:48:27.994Z,4.30
2023-04-02T12:50:55.692Z,3.13
2023-04-02T12:53:35.151Z,3.35
2023-04-02T12:56:02.531Z,5.30
2023-04-02T12:58:29.688Z,2.60
2023-04-02T13:01:23.668Z,2.27
2023-04-02T13:04:01.056Z,2.00
2023-04-02T13:06:28.358Z,2.25
2023-04-02T13:08:55.611Z,2.00
2023-04-02T13:11:23.171Z,2.05
2023-04-02T13:13:50.477Z,2.97
2023-04-02T13:16:17.873Z,2.13
2023-04-02T13:18:46.514Z,2.00
2023-04-02T13:21:16.770Z,2.40
2023-04-02T13:23:44.253Z,2.90
2023-04-02T13:26:18.769Z,2.37
2023-04-02T13:28:58.967Z,2.22
2023-04-02T13:31:26.545Z,2.33
2023-04-02T13:33:53.834Z,2.33
2023-04-02T13:36:21.234Z,1.98
2023-04-02T13:38:48.471Z,3.20
2023-04-02T13:41:26.516Z,3.42
2023-04-02T13:43:54.434Z,2.67
2023-04-02T13:46:23.541Z,2.78
2023-04-02T13:48:51.427Z,2.80
2023-04-02T13:51:19.306Z,2.53
2023-04-02T13:53:47.625Z,2.58
2023-04-02T13:56:14.933Z,3.22
2023-04-02T13:58:42.195Z,4.10
2023-04-02T14:01:09.478Z,2.90
2023-04-02T14:03:36.856Z,2.73
2023-04-02T14:06:10.229Z,2.22
2023-04-02T14:08:59.671Z,2.85
2023-04-02T14:11:47.516Z,3.92
2023-04-02T14:14:36.345Z,2.97
2023-04-02T14:17:29.598Z,5.90
2023-04-02T14:20:12.115Z,2.00
2023-04-02T14:22:52.017Z,2.50
2023-04-02T14:25:57.709Z,2.38
2023-04-02T14:28:29.940Z,6.68
2023-04-02T14:31:18.953Z,2.00
2023-04-02T14:34:03.046Z,3.05
2023-04-02T14:36:58.712Z,2.17
2023-04-02T14:39:34.841Z,4.97
2023-04-02T14:42:04.602Z,3.88
2023-04-02T14:44:35.276Z,5.53
2023-04-02T14:47:11.547Z,5.93
2023-04-02T14:49:40.053Z,4.05
2023-04-02T14:52:16.298Z,4.80
2023-04-02T14:54:43.423Z,3.38
2023-04-02T14:57:10.605Z,4.80
2023-04-02T14:59:44.637Z,5.30
2023-04-02T15:02:30.870Z,7.57
2023-04-02T15:05:14.720Z,5.00
2023-04-02T15:08:04.263Z,5.30
2023-04-02T15:10:37.138Z,7.93
2023-04-02T15:13:06.752Z,5.28
2023-04-02T15:15:46.840Z,4.10
2023-04-02T15:18:15.910Z,4.00
2023-04-02T15:21:16.674Z,4.35
2023-04-02T15:23:59.159Z,4.17
2023-04-02T15:26:27.127Z,4.50
2023-04-02T15:29:25.927Z,3.25
2023-04-02T15:32:01.292Z,6.35
2023-04-02T15:34:37.568Z,8.05
2023-04-02T15:37:13.151Z,7.67
2023-04-02T15:40:03.197Z,10.05
2023-04-02T15:42:39.215Z,5.68
2023-04-02T15:45:19.403Z,4.43
2023-04-02T15:48:17.407Z,4.25
2023-04-02T15:50:50.396Z,2.50
2023-04-02T15:53:30.155Z,4.65
2023-04-02T15:56:38.393Z,5.47
2023-04-02T15:59:28.827Z,7.40
2023-04-02T16:02:38.572Z,4.70
2023-04-02T16:05:47.494Z,3.30
2023-04-02T16:08:38.918Z,5.35
2023-04-02T16:11:12.524Z,4.82
2023-04-02T16:13:40.679Z,4.50
2023-04-02T16:16:19.089Z,2.75
2023-04-02T16:19:15.972Z,2.43
2023-04-02T16:21:49.293Z,2.28
2023-04-02T16:24:16.593Z,3.83
2023-04-02T16:27:17.736Z,4.43
2023-04-02T16:30:03.601Z,2.35
2023-04-02T16:32:48.229Z,2.57
2023-04-02T16:35:40.750Z,2.35
2023-04-02T16:38:24.398Z,3.25
2023-04-02T16:41:07.751Z,2.33
2023-04-02T16:43:54.754Z,2.45
2023-04-02T16:46:38.789Z,2.57
2023-04-02T16:49:19.684Z,3.38
2023-04-02T16:52:02.210Z,3.00
2023-04-02T16:54:38.610Z,3.25
2023-04-02T16:57:21.020Z,2.08
2023-04-02T17:00:06.612Z,3.77
2023-04-02T17:02:42.179Z,1.88
2023-04-02T17:05:15.553Z,1.88
2023-04-02T17:08:01.720Z,2.45
2023-04-02T17:10:33.516Z,2.53
2023-04-02T17:13:13.030Z,4.13
2023-04-02T17:15:40.380Z,2.75
2023-04-02T17:18:16.489Z,2.15
2023-04-02T17:20:43.760Z,2.53
2023-04-02T17:23:14.536Z,3.53
2023-04-02T17:25:48.348Z,1.80
2023-04-02T17:28:17.175Z,1.30
2023-04-02T17:30:52.611Z,2.20
2023-04-02T17:33:22.021Z,1.35
2023-04-02T17:35:58.161Z,2.67
2023-04-02T17:38:34.656Z,2.63
2023-04-02T17:41:15.155Z,2.97
2023-04-02T17:43:57.435Z,1.80
2023-04-02T17:46:39.402Z,2.97
2023-04-02T17:49:12.557Z,1.23
2023-04-02T17:51:42.276Z,1.63
2023-04-02T17:54:09.468Z,1.30
2023-04-02T17:56:42.355Z,1.63
2023-04-02T17:59:46.070Z,2.22
2023-04-02T18:02:23.885Z,3.05
2023-04-02T18:05:12.149Z,4.57
2023-04-02T18:07:57.987Z,2.45
2023-04-02T18:10:33.771Z,2.08
2023-04-02T18:13:08.556Z,1.52
2023-04-02T18:15:38.734Z,2.03
2023-04-02T18:18:39.341Z,1.77
2023-04-02T18:21:12.403Z,2.55
2023-04-02T18:23:59.118Z,1.65
2023-04-02T18:26:39.375Z,1.77
2023-04-02T18:29:43.604Z,2.80
2023-04-02T18:32:32.326Z,1.57
2023-04-02T18:35:02.329Z,2.33
2023-04-02T18:37:54.113Z,2.22
2023-04-02T18:40:33.243Z,1.42
2023-04-02T18:43:08.735Z,1.90
2023-04-02T18:45:57.524Z,3.47
2023-04-02T18:48:49.579Z,1.50
2023-04-02T18:51:19.958Z,1.20
2023-04-02T18:53:47.562Z,1.17
2023-04-02T18:56:17.266Z,2.08
2023-04-02T18:58:58.111Z,2.28
2023-04-02T19:01:34.104Z,2.28
2023-04-02T19:04:17.306Z,1.60
2023-04-02T19:06:46.708Z,2.08
2023-04-02T19:09:15.257Z,2.33
2023-04-02T19:11:42.655Z,1.92
2023-04-02T19:14:14.381Z,2.08
2023-04-02T19:17:01.584Z,1.27
2023-04-02T19:19:35.810Z,0.90
2023-04-02T19:22:18.269Z,2.33
2023-04-02T19:24:56.929Z,2.30
2023-04-02T19:27:37.029Z,1.40
2023-04-02T19:30:28.786Z,1.33
2023-04-02T19:33:13.886Z,2.10
2023-04-02T19:35:46.897Z,2.17
2023-04-02T19:38:39.342Z,1.48
2023-04-02T19:41:27.310Z,1.70
2023-04-02T19:43:55.010Z,1.98
2023-04-02T19:46:23.305Z,1.85
2023-04-02T19:48:57.384Z,1.27
2023-04-02T19:51:24.675Z,3.70
2023-04-02T19:53:51.935Z,3.15
2023-04-02T19:56:19.258Z,2.90
2023-04-02T19:58:46.596Z,2.90
2023-04-02T20:01:13.904Z,1.33
2023-04-02T20:03:41.263Z,2.92
2023-04-02T20:06:08.573Z,1.80
2023-04-02T20:08:38.692Z,2.47
2023-04-02T20:11:06.356Z,2.80
2023-04-02T20:13:33.999Z,3.47
2023-04-02T20:16:02.049Z,2.80
2023-04-02T20:18:29.834Z,1.70
2023-04-02T20:20:57.121Z,3.33
2023-04-02T20:23:24.975Z,2.22
2023-04-02T20:25:53.208Z,3.30
2023-04-02T20:28:21.326Z,2.65
2023-04-02T20:30:50.281Z,1.83
2023-04-02T20:33:18.606Z,1.85
2023-04-02T20:35:46.067Z,2.25
2023-04-02T20:38:13.440Z,2.45
2023-04-02T20:40:41.640Z,2.20
2023-04-02T20:43:09.615Z,2.42
2023-04-02T20:45:37.356Z,2.42
2023-04-02T20:48:04.928Z,2.00
2023-04-02T20:50:32.581Z,2.15
2023-04-02T20:52:59.864Z,2.47
2023-04-02T20:55:27.098Z,2.80
2023-04-02T20:57:54.607Z,1.95
2023-04-02T21:00:22.620Z,2.83
2023-04-02T21:02:49.974Z,2.30
2023-04-02T21:05:17.285Z,2.25
2023-04-02T21:07:44.591Z,1.45
2023-04-02T21:10:11.834Z,2.55
2023-04-02T21:12:39.158Z,1.52
2023-04-02T21:15:07.039Z,1.85
2023-04-02T21:17:34.321Z,1.80
2023-04-02T21:20:02.137Z,1.55
2023-04-02T21:22:29.402Z,1.95
2023-04-02T21:24:56.670Z,2.17
2023-04-02T21:27:26.055Z,2.53
2023-04-02T21:29:53.493Z,1.85
2023-04-02T21:32:21.948Z,2.05
2023-04-02T21:34:49.571Z,1.73
2023-04-02T21:37:16.808Z,1.20
2023-04-02T21:39:44.028Z,2.67
2023-04-02T21:42:11.727Z,1.77
2023-04-02T21:44:38.981Z,2.38
2023-04-02T21:47:06.329Z,3.63
2023-04-02T21:49:33.801Z,1.38
2023-04-02T21:52:01.155Z,1.40
2023-04-02T21:54:29.390Z,1.43
2023-04-02T21:56:56.927Z,2.03
2023-04-02T21:59:24.336Z,1.52
2023-04-02T22:01:52.262Z,2.13
2023-04-02T22:04:21.346Z,1.73
2023-04-02T22:06:48.821Z,1.75
2023-04-02T22:09:17.937Z,1.80
2023-04-02T22:11:47.004Z,1.40
2023-04-02T22:14:14.394Z,1.65
2023-04-02T22:16:41.961Z,1.98
2023-04-02T22:19:11.793Z,3.08
2023-04-02T22:21:39.080Z,2.67
2023-04-02T22:24:09.072Z,1.85
2023-04-02T22:26:36.522Z,1.85
2023-04-02T22:29:04.501Z,1.10
2023-04-02T22:31:33.350Z,1.50
2023-04-02T22:34:01.165Z,1.15
2023-04-02T22:36:28.695Z,1.08
2023-04-02T22:38:56.822Z,1.40
2023-04-02T22:41:28.374Z,3.58
2023-04-02T22:43:56.276Z,3.15
2023-04-02T22:46:23.838Z,1.67
2023-04-02T22:48:51.209Z,1.17
2023-04-02T22:51:19.938Z,1.33
2023-04-02T22:53:47.413Z,2.20
2023-04-02T22:56:22.690Z,1.27
2023-04-02T22:58:50.001Z,1.80
2023-04-02T23:01:21.385Z,0.85
2023-04-02T23:03:48.952Z,1.52
2023-04-02T23:06:17.198Z,1.13
2023-04-02T23:08:44.692Z,1.02
2023-04-02T23:11:22.894Z,0.70
2023-04-02T23:13:51.329Z,1.58
2023-04-02T23:16:18.855Z,1.08
2023-04-02T23:18:49.238Z,1.27
2023-04-02T23:21:17.192Z,0.77
2023-04-02T23:23:44.570Z,0.98
2023-04-02T23:26:13.883Z,0.85
2023-04-02T23:28:41.232Z,1.58
2023-04-02T23:31:11.061Z,1.27
2023-04-02T23:33:38.353Z,1.40
2023-04-02T23:36:32.546Z,0.93
2023-04-02T23:39:01.683Z,0.73
2023-04-02T23:41:29.700Z,1.95
2023-04-02T23:43:57.156Z,0.90
2023-04-02T23:46:24.776Z,1.25
2023-04-02T23:48:52.403Z,0.85
2023-04-02T23:51:19.872Z,1.35
2023-04-02T23:53:47.735Z,0.90
2023-04-02T23:56:15.404Z,1.30
2023-04-02T23:58:42.709Z,1.50
